Time,TemperatureF,DewpointF,PressureIn,WindDirection,WindDirectionDegrees,WindSpeedMPH,WindSpeedGustMPH,Humidity,HourlyPrecipIn,Conditions,Clouds,dailyrainin,SoftwareType,DateUTC
2013-01-23 00:04:00,48.8,38.7,29.21,NW,315,0.0,0.0,68,0.00,,,0.00,WSDL version 420,2013-01-23 06:04:00,
2013-01-23 00:09:00,48.9,38.8,29.21,NW,315,0.0,0.0,68,0.00,,,0.00,WSDL version 420,2013-01-23 06:09:00,
2013-01-23 00:14:00,48.9,38.8,29.21,NW,315,0.0,0.0,68,0.00,,,0.00,WSDL version 420,2013-01-23 06:14:00,
2013-01-23 00:19:00,48.9,39.2,29.21,NW,315,0.0,0.0,69,0.00,,,0.00,WSDL version 420,2013-01-23 06:19:00,
2013-01-23 00:24:00,49.0,39.2,29.21,NW,315,0.0,0.0,69,0.00,,,0.00,WSDL version 420,2013-01-23 06:24:00,
2013-01-23 00:29:00,48.9,39.2,29.21,NW,315,0.0,0.0,69,0.00,,,0.00,WSDL version 420,2013-01-23 06:29:00,
2013-01-23 00:34:00,48.9,39.3,29.21,NW,315,0.0,0.0,70,0.00,,,0.00,WSDL version 420,2013-01-23 06:34:00,
2013-01-23 00:39:00,49.0,39.7,29.21,NW,315,0.0,0.0,70,0.00,,,0.00,WSDL version 420,2013-01-23 06:39:00,
2013-01-23 00:49:00,48.9,39.2,29.21,NW,315,0.0,0.0,69,0.00,,,0.00,WSDL version 420,2013-01-23 06:49:00,
2013-01-23 00:54:00,49.0,39.7,29.21,NW,315,0.0,0.0,71,0.00,,,0.00,WSDL version 420,2013-01-23 06:54:00,
2013-01-23 00:59:00,49.1,40.2,29.21,NW,315,0.0,0.0,72,0.00,,,0.00,WSDL version 420,2013-01-23 06:59:00,
2013-01-23 01:04:00,49.1,40.5,29.21,NW,315,0.0,0.0,72,0.00,,,0.00,WSDL version 420,2013-01-23 07:04:00,
2013-01-23 01:09:00,49.2,40.2,29.21,NW,315,0.0,0.0,71,0.00,,,0.00,WSDL version 420,2013-01-23 07:09:00,
2013-01-23 01:14:00,49.5,40.4,29.21,WNW,293,0.0,0.0,71,0.00,,,0.00,WSDL version 420,2013-01-23 07:14:00,
2013-01-23 01:19:00,49.7,40.7,29.21,West,270,0.0,0.9,71,0.00,,,0.00,WSDL version 420,2013-01-23 07:19:00,
2013-01-23 01:24:00,49.9,41.2,29.21,SW,225,0.0,0.9,71,0.00,,,0.00,WSDL version 420,2013-01-23 07:24:00,
2013-01-23 01:29:00,50.0,41.2,29.21,South,186,0.0,0.9,72,0.00,,,0.00,WSDL version 420,2013-01-23 07:29:00,
2013-01-23 01:34:00,50.0,41.0,29.21,SSW,203,0.0,0.0,71,0.00,,,0.00,WSDL version 420,2013-01-23 07:34:00,
2013-01-23 01:39:00,50.0,41.0,29.21,SSW,203,0.0,0.0,72,0.00,,,0.00,WSDL version 420,2013-01-23 07:39:00,
2013-01-23 01:44:00,50.1,41.5,29.21,SSE,160,0.4,1.1,73,0.00,,,0.00,WSDL version 420,2013-01-23 07:44:00,
2013-01-23 01:49:00,50.0,41.5,29.21,South,180,0.6,1.1,73,0.00,,,0.00,WSDL version 420,2013-01-23 07:49:00,
2013-01-23 01:59:00,49.8,41.5,29.21,South,180,0.0,0.0,73,0.00,,,0.00,WSDL version 420,2013-01-23 07:59:00,
2013-01-23 02:04:00,49.6,41.4,29.21,South,180,0.0,0.0,73,0.00,,,0.00,WSDL version 420,2013-01-23 08:04:00,
2013-01-23 02:09:00,49.6,41.3,29.21,South,180,0.0,0.0,73,0.00,,,0.00,WSDL version 420,2013-01-23 08:09:00,
2013-01-23 02:14:00,49.3,41.1,29.21,South,180,0.0,0.0,73,0.00,,,0.00,WSDL version 420,2013-01-23 08:14:00,
2013-01-23 02:24:00,48.8,40.7,29.21,South,180,0.0,0.0,73,0.00,,,0.00,WSDL version 420,2013-01-23 08:24:00,
2013-01-23 02:29:00,48.7,40.5,29.21,SSW,194,0.0,0.0,73,0.00,,,0.00,WSDL version 420,2013-01-23 08:29:00,
2013-01-23 02:34:00,48.7,40.4,29.21,WNW,293,0.0,0.0,73,0.00,,,0.00,WSDL version 420,2013-01-23 08:34:00,
2013-01-23 02:39:00,48.6,40.5,29.21,WNW,293,0.0,0.0,74,0.00,,,0.00,WSDL version 420,2013-01-23 08:39:00,
2013-01-23 02:44:00,48.6,40.4,29.21,WNW,293,0.0,0.0,74,0.00,,,0.00,WSDL version 420,2013-01-23 08:44:00,
2013-01-23 02:49:00,48.7,41.0,29.21,South,180,0.0,0.0,75,0.00,,,0.00,WSDL version 420,2013-01-23 08:49:00,
2013-01-23 02:54:00,48.7,41.2,29.21,South,180,0.0,0.0,75,0.00,,,0.00,WSDL version 420,2013-01-23 08:54:00,
2013-01-23 02:59:00,48.7,40.8,29.21,SSW,203,0.0,0.0,73,0.00,,,0.00,WSDL version 420,2013-01-23 08:59:00,
2013-01-23 03:04:00,48.6,40.4,29.21,SSW,203,0.0,0.0,74,0.00,,,0.00,WSDL version 420,2013-01-23 09:04:00,
2013-01-23 03:09:00,48.6,40.7,29.21,SSW,203,0.0,0.0,75,0.00,,,0.00,WSDL version 420,2013-01-23 09:09:00,
2013-01-23 03:14:00,48.7,41.3,29.21,South,180,0.3,1.1,76,0.00,,,0.00,WSDL version 420,2013-01-23 09:14:00,
2013-01-23 03:19:00,48.7,41.5,29.21,SSW,197,0.9,1.3,76,0.00,,,0.00,WSDL version 420,2013-01-23 09:19:00,
2013-01-23 03:24:00,48.7,41.5,29.21,SSW,203,0.9,1.3,76,0.00,,,0.00,WSDL version 420,2013-01-23 09:24:00,
2013-01-23 03:29:00,48.7,41.5,29.21,SSW,203,0.9,1.3,76,0.00,,,0.00,WSDL version 420,2013-01-23 09:29:00,
2013-01-23 03:34:00,48.7,41.1,29.21,SSW,203,0.4,1.3,74,0.00,,,0.00,WSDL version 420,2013-01-23 09:34:00,
2013-01-23 03:39:00,48.7,41.4,29.21,SSW,203,0.9,1.3,76,0.00,,,0.00,WSDL version 420,2013-01-23 09:39:00,
2013-01-23 03:44:00,48.7,41.5,29.21,SSW,193,0.5,2.0,76,0.00,,,0.00,WSDL version 420,2013-01-23 09:44:00,
2013-01-23 03:49:00,48.8,41.9,29.21,SSW,193,0.1,2.0,77,0.00,,,0.00,WSDL version 420,2013-01-23 09:49:00,
2013-01-23 03:59:00,48.7,42.1,29.18,South,175,0.0,1.3,78,0.00,,,0.00,WSDL version 420,2013-01-23 09:59:00,
2013-01-23 04:04:00,48.7,42.2,29.18,SSE,158,0.0,1.1,78,0.00,,,0.00,WSDL version 420,2013-01-23 10:04:00,
2013-01-23 04:14:00,48.6,41.5,29.18,SSW,203,0.0,0.0,77,0.00,,,0.00,WSDL version 420,2013-01-23 10:14:00,
2013-01-23 04:19:00,48.6,41.7,29.18,SSW,203,0.0,0.0,77,0.00,,,0.00,WSDL version 420,2013-01-23 10:19:00,
2013-01-23 04:24:00,48.4,41.6,29.18,SSW,203,0.0,0.0,78,0.00,,,0.00,WSDL version 420,2013-01-23 10:24:00,
2013-01-23 04:29:00,48.2,41.7,29.21,SSW,203,0.0,0.0,78,0.00,,,0.00,WSDL version 420,2013-01-23 10:29:00,
2013-01-23 04:34:00,48.2,41.7,29.21,SSW,203,0.0,0.0,78,0.00,,,0.00,WSDL version 420,2013-01-23 10:34:00,
2013-01-23 04:39:00,48.1,41.6,29.21,SSW,203,0.0,0.0,78,0.00,,,0.00,WSDL version 420,2013-01-23 10:39:00,
2013-01-23 04:44:00,47.8,41.0,29.18,SSW,203,0.0,0.0,77,0.00,,,0.00,WSDL version 420,2013-01-23 10:44:00,
2013-01-23 04:49:00,47.7,40.8,29.18,SSW,203,0.0,0.0,77,0.00,,,0.00,WSDL version 420,2013-01-23 10:49:00,
2013-01-23 04:54:00,47.3,40.5,29.18,SSW,203,0.0,0.0,77,0.00,,,0.00,WSDL version 420,2013-01-23 10:54:00,
2013-01-23 05:04:00,46.6,39.7,29.21,SSW,203,0.0,0.0,76,0.00,,,0.00,WSDL version 420,2013-01-23 11:04:00,
2013-01-23 05:09:00,46.3,39.3,29.21,SSW,203,0.0,0.0,77,0.00,,,0.00,WSDL version 420,2013-01-23 11:09:00,
2013-01-23 05:14:00,46.0,39.2,29.21,SSW,203,0.0,0.0,77,0.00,,,0.00,WSDL version 420,2013-01-23 11:14:00,
2013-01-23 05:19:00,45.9,39.1,29.21,SSW,203,0.0,0.0,77,0.00,,,0.00,WSDL version 420,2013-01-23 11:19:00,
2013-01-23 05:24:00,46.0,39.2,29.21,SSW,203,0.0,0.0,77,0.00,,,0.00,WSDL version 420,2013-01-23 11:24:00,
2013-01-23 05:29:00,46.4,39.6,29.21,SSW,203,0.0,0.0,77,0.00,,,0.00,WSDL version 420,2013-01-23 11:29:00,
2013-01-23 05:34:00,46.8,40.0,29.21,SSW,203,0.0,0.0,77,0.00,,,0.00,WSDL version 420,2013-01-23 11:34:00,
2013-01-23 05:39:00,46.9,40.3,29.21,SSW,203,0.0,0.0,78,0.00,,,0.00,WSDL version 420,2013-01-23 11:39:00,
2013-01-23 05:44:00,46.7,40.0,29.21,SSW,203,0.0,0.0,77,0.00,,,0.00,WSDL version 420,2013-01-23 11:44:00,
2013-01-23 05:49:00,46.6,39.6,29.21,SSW,203,0.0,0.0,76,0.00,,,0.00,WSDL version 420,2013-01-23 11:49:00,
2013-01-23 05:54:00,46.4,39.3,29.21,SSW,203,0.0,0.0,76,0.00,,,0.00,WSDL version 420,2013-01-23 11:54:00,
2013-01-23 05:59:00,46.2,39.0,29.21,SSW,203,0.0,0.0,76,0.00,,,0.00,WSDL version 420,2013-01-23 11:59:00,
2013-01-23 06:04:00,45.9,38.8,29.21,SSW,203,0.0,0.0,76,0.00,,,0.00,WSDL version 420,2013-01-23 12:04:00,
2013-01-23 06:09:00,45.9,39.0,29.21,SSW,203,0.0,0.0,77,0.00,,,0.00,WSDL version 420,2013-01-23 12:09:00,
2013-01-23 06:14:00,45.5,38.8,29.21,SSW,203,0.0,0.0,77,0.00,,,0.00,WSDL version 420,2013-01-23 12:14:00,
2013-01-23 06:19:00,45.4,38.6,29.21,SSW,203,0.0,0.0,78,0.00,,,0.00,WSDL version 420,2013-01-23 12:19:00,
2013-01-23 06:24:00,45.5,39.0,29.21,SSW,203,0.0,0.0,78,0.00,,,0.00,WSDL version 420,2013-01-23 12:24:00,
2013-01-23 06:29:00,45.7,39.5,29.21,SSW,203,0.0,0.0,79,0.00,,,0.00,WSDL version 420,2013-01-23 12:29:00,
2013-01-23 06:34:00,46.2,40.4,29.21,SSW,200,0.0,1.1,80,0.00,,,0.00,WSDL version 420,2013-01-23 12:34:00,
2013-01-23 06:39:00,46.6,40.8,29.21,SSW,208,0.0,1.1,80,0.00,,,0.00,WSDL version 420,2013-01-23 12:39:00,
2013-01-23 06:44:00,46.9,41.1,29.21,NNW,338,0.0,0.0,80,0.00,,,0.00,WSDL version 420,2013-01-23 12:44:00,
2013-01-23 06:49:00,47.1,41.3,29.21,SW,217,0.0,0.9,80,0.00,,,0.00,WSDL version 420,2013-01-23 12:49:00,
2013-01-23 06:54:00,47.2,41.6,29.21,SSW,208,0.0,1.1,81,0.00,,,0.00,WSDL version 420,2013-01-23 12:54:00,
2013-01-23 06:59:00,47.3,41.8,29.21,SSW,203,0.0,1.1,81,0.00,,,0.00,WSDL version 420,2013-01-23 12:59:00,
2013-01-23 07:04:00,47.5,42.3,29.21,SSW,203,0.0,0.9,82,0.00,,,0.00,WSDL version 420,2013-01-23 13:04:00,
2013-01-23 07:09:00,47.5,42.5,29.21,SSW,203,0.0,0.0,83,0.00,,,0.00,WSDL version 420,2013-01-23 13:09:00,
2013-01-23 07:14:00,47.7,42.9,29.23,SSE,158,0.0,0.0,83,0.00,,,0.00,WSDL version 420,2013-01-23 13:14:00,
2013-01-23 07:19:00,47.7,42.9,29.23,South,188,0.0,0.0,83,0.00,,,0.00,WSDL version 420,2013-01-23 13:19:00,
2013-01-23 07:24:00,47.8,42.8,29.23,WSW,248,0.0,0.0,83,0.00,,,0.00,WSDL version 420,2013-01-23 13:24:00,
2013-01-23 07:29:00,47.8,43.0,29.23,WSW,248,0.0,0.0,83,0.00,,,0.00,WSDL version 420,2013-01-23 13:29:00,
2013-01-23 07:34:00,48.0,43.2,29.23,WSW,248,0.0,0.0,83,0.00,,,0.00,WSDL version 420,2013-01-23 13:34:00,
2013-01-23 07:39:00,48.0,43.2,29.23,WSW,248,0.0,0.0,83,0.00,,,0.00,WSDL version 420,2013-01-23 13:39:00,
2013-01-23 07:44:00,48.2,43.4,29.23,WSW,248,0.0,0.0,83,0.00,,,0.00,WSDL version 420,2013-01-23 13:44:00,
2013-01-23 07:49:00,48.4,43.5,29.23,WSW,248,0.0,0.0,83,0.00,,,0.00,WSDL version 420,2013-01-23 13:49:00,
2013-01-23 07:54:00,48.6,43.7,29.23,WSW,248,0.0,0.0,83,0.00,,,0.00,WSDL version 420,2013-01-23 13:54:00,
2013-01-23 07:59:00,48.7,43.6,29.23,WSW,248,0.0,0.0,82,0.00,,,0.00,WSDL version 420,2013-01-23 13:59:00,
2013-01-23 08:04:00,48.8,43.5,29.23,WSW,255,0.0,0.0,81,0.00,,,0.00,WSDL version 420,2013-01-23 14:04:00,
2013-01-23 08:09:00,48.9,43.4,29.23,West,270,0.0,0.0,81,0.00,,,0.00,WSDL version 420,2013-01-23 14:09:00,
2013-01-23 08:14:00,49.0,43.6,29.23,West,270,0.0,0.0,82,0.00,,,0.00,WSDL version 420,2013-01-23 14:14:00,
2013-01-23 08:19:00,49.1,43.7,29.23,WSW,248,0.0,1.3,81,0.00,,,0.00,WSDL version 420,2013-01-23 14:19:00,
2013-01-23 08:24:00,49.4,43.8,29.23,SSW,203,0.0,1.6,81,0.00,,,0.00,WSDL version 420,2013-01-23 14:24:00,
2013-01-23 08:29:00,49.6,44.2,29.23,SSW,213,0.9,1.6,82,0.00,,,0.00,WSDL version 420,2013-01-23 14:29:00,
2013-01-23 08:34:00,49.6,44.4,29.23,SSW,211,0.0,1.6,82,0.00,,,0.00,WSDL version 420,2013-01-23 14:34:00,
2013-01-23 08:39:00,49.9,44.9,29.23,SSW,210,0.0,1.6,83,0.00,,,0.00,WSDL version 420,2013-01-23 14:39:00,
2013-01-23 08:44:00,50.0,44.8,29.23,WSW,248,0.3,1.6,82,0.00,,,0.00,WSDL version 420,2013-01-23 14:44:00,
2013-01-23 08:49:00,50.1,44.8,29.23,West,263,0.1,1.6,82,0.00,,,0.00,WSDL version 420,2013-01-23 14:49:00,
2013-01-23 08:54:00,50.2,45.0,29.23,West,270,0.0,1.3,82,0.00,,,0.00,WSDL version 420,2013-01-23 14:54:00,
2013-01-23 08:59:00,50.4,45.3,29.23,SW,223,0.0,1.3,83,0.00,,,0.00,WSDL version 420,2013-01-23 14:59:00,
2013-01-23 09:04:00,50.5,45.6,29.23,WSW,248,0.0,1.3,83,0.00,,,0.00,WSDL version 420,2013-01-23 15:04:00,
2013-01-23 09:09:00,50.9,46.2,29.23,WSW,240,0.4,1.3,84,0.00,,,0.00,WSDL version 420,2013-01-23 15:09:00,
2013-01-23 09:14:00,51.2,46.5,29.23,SW,230,0.6,2.0,83,0.00,,,0.00,WSDL version 420,2013-01-23 15:14:00,
2013-01-23 09:19:00,51.7,46.9,29.23,SW,225,0.5,2.0,83,0.00,,,0.00,WSDL version 420,2013-01-23 15:19:00,
2013-01-23 09:24:00,52.2,47.4,29.23,SW,230,0.5,2.0,84,0.00,,,0.00,WSDL version 420,2013-01-23 15:24:00,
2013-01-23 09:29:00,52.5,47.9,29.26,SW,228,1.2,2.7,84,0.00,,,0.00,WSDL version 420,2013-01-23 15:29:00,
2013-01-23 09:34:00,52.9,48.3,29.26,SSW,205,1.1,2.7,84,0.00,,,0.00,WSDL version 420,2013-01-23 15:34:00,
2013-01-23 09:39:00,53.4,48.8,29.26,SSE,165,1.3,2.7,84,0.00,,,0.00,WSDL version 420,2013-01-23 15:39:00,
2013-01-23 09:44:00,53.9,49.3,29.26,SSW,203,1.5,3.1,84,0.00,,,0.00,WSDL version 420,2013-01-23 15:44:00,
2013-01-23 09:49:00,54.8,50.5,29.26,South,178,1.3,3.8,86,0.00,,,0.00,WSDL version 420,2013-01-23 15:49:00,
2013-01-23 09:54:00,55.2,50.6,29.26,South,175,1.2,3.8,84,0.00,,,0.00,WSDL version 420,2013-01-23 15:54:00,
2013-01-23 09:59:00,56.1,51.5,29.26,SW,218,1.0,2.5,84,0.00,,,0.00,WSDL version 420,2013-01-23 15:59:00,
2013-01-23 10:04:00,56.8,52.1,29.26,SSE,152,0.9,2.5,84,0.00,,,0.00,WSDL version 420,2013-01-23 16:04:00,
2013-01-23 10:09:00,57.5,52.6,29.26,SSW,194,1.1,2.7,83,0.00,,,0.00,WSDL version 420,2013-01-23 16:09:00,
2013-01-23 10:14:00,58.1,53.1,29.26,WSW,245,1.4,2.7,83,0.00,,,0.00,WSDL version 420,2013-01-23 16:14:00,
2013-01-23 10:19:00,58.9,53.6,29.26,South,183,1.4,2.7,82,0.00,,,0.00,WSDL version 420,2013-01-23 16:19:00,
2013-01-23 10:24:00,59.9,54.4,29.26,SW,223,0.6,2.7,82,0.00,,,0.00,WSDL version 420,2013-01-23 16:24:00,
2013-01-23 10:29:00,60.7,55.0,29.26,SW,214,1.5,2.7,81,0.00,,,0.00,WSDL version 420,2013-01-23 16:29:00,
2013-01-23 10:34:00,61.4,54.8,29.26,SSW,193,2.3,5.8,76,0.00,,,0.00,WSDL version 420,2013-01-23 16:34:00,
2013-01-23 10:39:00,61.7,53.7,29.26,South,188,2.6,5.8,73,0.00,,,0.00,WSDL version 420,2013-01-23 16:39:00,
2013-01-23 10:44:00,62.4,53.1,29.26,SSW,195,2.6,4.3,70,0.00,,,0.00,WSDL version 420,2013-01-23 16:44:00,
2013-01-23 10:49:00,63.4,53.3,29.26,SSW,208,2.4,6.3,68,0.00,,,0.00,WSDL version 420,2013-01-23 16:49:00,
2013-01-23 10:54:00,64.5,53.2,29.26,SW,217,3.0,6.3,65,0.00,,,0.00,WSDL version 420,2013-01-23 16:54:00,
2013-01-23 10:59:00,65.0,53.5,29.26,SW,231,2.2,5.8,66,0.00,,,0.00,WSDL version 420,2013-01-23 16:59:00,
2013-01-23 11:04:00,65.9,53.7,29.26,SW,217,2.5,4.7,64,0.00,,,0.00,WSDL version 420,2013-01-23 17:04:00,
2013-01-23 11:09:00,66.4,53.2,29.26,SSW,193,2.5,5.6,62,0.00,,,0.00,WSDL version 420,2013-01-23 17:09:00,
2013-01-23 11:14:00,66.6,52.8,29.26,South,188,2.4,5.6,61,0.00,,,0.00,WSDL version 420,2013-01-23 17:14:00,
2013-01-23 11:19:00,67.3,53.0,29.26,SSW,210,2.2,4.5,60,0.00,,,0.00,WSDL version 420,2013-01-23 17:19:00,
2013-01-23 11:24:00,68.2,52.9,29.26,South,178,1.7,3.8,58,0.00,,,0.00,WSDL version 420,2013-01-23 17:24:00,
2013-01-23 11:29:00,68.3,52.0,29.26,SW,222,2.1,3.6,56,0.00,,,0.00,WSDL version 420,2013-01-23 17:29:00,
2013-01-23 11:34:00,68.8,52.0,29.26,South,175,1.7,3.6,55,0.00,,,0.00,WSDL version 420,2013-01-23 17:34:00,
2013-01-23 11:39:00,69.0,51.4,29.26,SSW,208,2.8,5.4,53,0.00,,,0.00,WSDL version 420,2013-01-23 17:39:00,
2013-01-23 11:44:00,69.1,51.0,29.23,SSW,213,2.4,5.4,52,0.00,,,0.00,WSDL version 420,2013-01-23 17:44:00,
2013-01-23 11:49:00,69.4,51.0,29.23,South,177,2.1,4.7,52,0.00,,,0.00,WSDL version 420,2013-01-23 17:49:00,
2013-01-23 11:54:00,69.5,51.1,29.23,SSW,200,2.3,3.6,51,0.00,,,0.00,WSDL version 420,2013-01-23 17:54:00,
2013-01-23 11:59:00,69.9,50.9,29.23,SSW,194,2.3,3.4,50,0.00,,,0.00,WSDL version 420,2013-01-23 17:59:00,
2013-01-23 12:04:00,69.9,50.3,29.23,SSW,203,2.2,4.0,50,0.00,,,0.00,WSDL version 420,2013-01-23 18:04:00,
2013-01-23 12:09:00,70.3,50.5,29.23,South,170,2.6,4.0,49,0.00,,,0.00,WSDL version 420,2013-01-23 18:09:00,
2013-01-23 12:14:00,70.0,49.7,29.21,SSW,200,2.2,3.8,48,0.00,,,0.00,WSDL version 420,2013-01-23 18:14:00,
2013-01-23 12:19:00,69.7,49.8,29.21,SW,218,2.2,5.6,49,0.00,,,0.00,WSDL version 420,2013-01-23 18:19:00,
2013-01-23 12:24:00,69.7,49.7,29.21,South,172,2.1,5.6,49,0.00,,,0.00,WSDL version 420,2013-01-23 18:24:00,
2013-01-23 12:29:00,70.2,49.9,29.21,SW,218,1.7,3.6,49,0.00,,,0.00,WSDL version 420,2013-01-23 18:29:00,
2013-01-23 12:34:00,70.0,49.9,29.21,SSW,200,2.0,3.8,49,0.00,,,0.00,WSDL version 420,2013-01-23 18:34:00,
2013-01-23 12:39:00,70.2,49.9,29.21,South,183,1.8,3.8,49,0.00,,,0.00,WSDL version 420,2013-01-23 18:39:00,
2013-01-23 12:44:00,70.6,50.2,29.21,SW,228,2.3,3.4,48,0.00,,,0.00,WSDL version 420,2013-01-23 18:44:00,
2013-01-23 12:49:00,70.5,49.9,29.21,SSW,197,3.0,4.7,48,0.00,,,0.00,WSDL version 420,2013-01-23 18:49:00,
2013-01-23 12:54:00,70.2,49.3,29.21,SSW,200,1.9,4.7,48,0.00,,,0.00,WSDL version 420,2013-01-23 18:54:00,
2013-01-23 12:59:00,70.5,49.9,29.21,SSE,160,2.2,4.7,48,0.00,,,0.00,WSDL version 420,2013-01-23 18:59:00,
2013-01-23 13:04:00,70.6,49.5,29.21,WSW,250,2.4,3.8,47,0.00,,,0.00,WSDL version 420,2013-01-23 19:04:00,
2013-01-23 13:09:00,70.6,49.7,29.21,SSW,205,2.4,4.0,48,0.00,,,0.00,WSDL version 420,2013-01-23 19:09:00,
2013-01-23 13:14:00,71.0,50.3,29.18,SSW,203,1.8,4.0,48,0.00,,,0.00,WSDL version 420,2013-01-23 19:14:00,
2013-01-23 13:19:00,71.8,50.7,29.18,SW,215,2.3,4.3,47,0.00,,,0.00,WSDL version 420,2013-01-23 19:19:00,
2013-01-23 13:24:00,72.0,50.3,29.18,SSW,208,2.1,4.3,46,0.00,,,0.00,WSDL version 420,2013-01-23 19:24:00,
2013-01-23 13:29:00,72.0,49.7,29.18,SSW,210,3.1,5.8,45,0.00,,,0.00,WSDL version 420,2013-01-23 19:29:00,
2013-01-23 13:34:00,71.8,49.3,29.18,SW,236,2.8,5.8,45,0.00,,,0.00,WSDL version 420,2013-01-23 19:34:00,
2013-01-23 13:39:00,72.1,49.3,29.18,SSW,198,2.3,4.3,44,0.00,,,0.00,WSDL version 420,2013-01-23 19:39:00,
2013-01-23 13:44:00,72.2,49.3,29.18,SSW,193,3.5,5.6,44,0.00,,,0.00,WSDL version 420,2013-01-23 19:44:00,
2013-01-23 13:49:00,72.4,49.5,29.18,South,170,2.6,5.6,45,0.00,,,0.00,WSDL version 420,2013-01-23 19:49:00,
2013-01-23 13:54:00,72.5,49.4,29.18,SSW,200,3.2,6.3,44,0.00,,,0.00,WSDL version 420,2013-01-23 19:54:00,
2013-01-23 13:59:00,72.5,49.4,29.18,SSW,194,2.9,6.3,44,0.00,,,0.00,WSDL version 420,2013-01-23 19:59:00,
2013-01-23 14:04:00,72.5,49.1,29.18,WSW,242,3.2,5.6,43,0.00,,,0.00,WSDL version 420,2013-01-23 20:04:00,
2013-01-23 14:09:00,72.6,49.1,29.18,South,186,2.5,5.6,44,0.00,,,0.00,WSDL version 420,2013-01-23 20:09:00,
2013-01-23 14:14:00,72.7,48.9,29.15,SW,235,3.0,5.6,43,0.00,,,0.00,WSDL version 420,2013-01-23 20:14:00,
2013-01-23 14:19:00,72.8,49.0,29.15,SW,218,2.2,5.6,43,0.00,,,0.00,WSDL version 420,2013-01-23 20:19:00,
2013-01-23 14:24:00,72.9,49.1,29.15,SW,222,2.9,4.7,43,0.00,,,0.00,WSDL version 420,2013-01-23 20:24:00,
2013-01-23 14:29:00,73.0,49.2,29.15,SW,225,2.7,4.7,43,0.00,,,0.00,WSDL version 420,2013-01-23 20:29:00,
2013-01-23 14:34:00,73.1,49.3,29.15,SW,225,2.3,3.8,43,0.00,,,0.00,WSDL version 420,2013-01-23 20:34:00,
2013-01-23 14:39:00,73.2,49.4,29.15,South,180,2.0,3.8,43,0.00,,,0.00,WSDL version 420,2013-01-23 20:39:00,
2013-01-23 14:44:00,73.1,49.3,29.15,SSW,200,2.9,4.3,43,0.00,,,0.00,WSDL version 420,2013-01-23 20:44:00,
2013-01-23 14:49:00,73.4,49.6,29.15,South,191,2.1,4.7,43,0.00,,,0.00,WSDL version 420,2013-01-23 20:49:00,
2013-01-23 14:54:00,73.5,49.4,29.15,SW,220,2.6,4.7,43,0.00,,,0.00,WSDL version 420,2013-01-23 20:54:00,
2013-01-23 14:59:00,73.4,49.4,29.15,South,191,2.9,4.9,43,0.00,,,0.00,WSDL version 420,2013-01-23 20:59:00,
2013-01-23 15:04:00,73.5,49.7,29.15,South,183,2.2,4.9,43,0.00,,,0.00,WSDL version 420,2013-01-23 21:04:00,
2013-01-23 15:09:00,73.7,49.4,29.15,SW,225,2.7,3.8,42,0.00,,,0.00,WSDL version 420,2013-01-23 21:09:00,
2013-01-23 15:14:00,73.7,49.8,29.15,WNW,300,1.8,3.8,43,0.00,,,0.00,WSDL version 420,2013-01-23 21:14:00,
2013-01-23 15:19:00,74.0,49.7,29.15,SW,214,2.9,4.7,42,0.00,,,0.00,WSDL version 420,2013-01-23 21:19:00,
2013-01-23 15:24:00,74.0,49.5,29.15,South,183,2.4,4.7,42,0.00,,,0.00,WSDL version 420,2013-01-23 21:24:00,
2013-01-23 15:29:00,73.8,49.3,29.15,South,188,2.0,4.7,42,0.00,,,0.00,WSDL version 420,2013-01-23 21:29:00,
2013-01-23 15:34:00,73.8,49.3,29.15,West,273,2.6,4.7,42,0.00,,,0.00,WSDL version 420,2013-01-23 21:34:00,
2013-01-23 15:39:00,73.9,49.4,29.15,SW,218,1.5,3.8,42,0.00,,,0.00,WSDL version 420,2013-01-23 21:39:00,
2013-01-23 15:44:00,74.0,49.5,29.15,SSW,194,2.2,3.8,42,0.00,,,0.00,WSDL version 420,2013-01-23 21:44:00,
2013-01-23 15:49:00,73.9,49.4,29.15,SW,220,2.4,3.8,42,0.00,,,0.00,WSDL version 420,2013-01-23 21:49:00,
2013-01-23 15:54:00,74.1,49.6,29.15,SW,228,2.2,4.0,42,0.00,,,0.00,WSDL version 420,2013-01-23 21:54:00,
2013-01-23 15:59:00,74.1,49.6,29.15,SW,230,1.6,4.0,42,0.00,,,0.00,WSDL version 420,2013-01-23 21:59:00,
2013-01-23 16:04:00,74.3,49.8,29.15,SSE,155,2.0,3.6,42,0.00,,,0.00,WSDL version 420,2013-01-23 22:04:00,
2013-01-23 16:09:00,74.3,49.8,29.15,South,186,2.2,4.0,42,0.00,,,0.00,WSDL version 420,2013-01-23 22:09:00,
2013-01-23 16:14:00,74.4,49.9,29.15,SSW,213,1.8,4.0,42,0.00,,,0.00,WSDL version 420,2013-01-23 22:14:00,
2013-01-23 16:19:00,74.3,49.8,29.15,SW,217,2.1,3.4,42,0.00,,,0.00,WSDL version 420,2013-01-23 22:19:00,
2013-01-23 16:24:00,74.3,49.7,29.15,South,190,2.0,4.3,42,0.00,,,0.00,WSDL version 420,2013-01-23 22:24:00,
2013-01-23 16:29:00,73.9,49.3,29.15,South,188,1.5,4.3,42,0.00,,,0.00,WSDL version 420,2013-01-23 22:29:00,
2013-01-23 16:34:00,73.3,49.1,29.15,SSW,193,1.8,4.0,43,0.00,,,0.00,WSDL version 420,2013-01-23 22:34:00,
2013-01-23 16:39:00,73.1,49.3,29.15,SSW,200,1.8,4.0,43,0.00,,,0.00,WSDL version 420,2013-01-23 22:39:00,
2013-01-23 16:44:00,72.8,49.0,29.15,South,190,2.2,4.7,43,0.00,,,0.00,WSDL version 420,2013-01-23 22:44:00,
2013-01-23 16:54:00,72.3,48.9,29.15,SW,231,2.5,3.8,44,0.00,,,0.00,WSDL version 420,2013-01-23 22:54:00,
2013-01-23 16:59:00,71.9,48.9,29.12,SSE,166,1.7,3.8,44,0.00,,,0.00,WSDL version 420,2013-01-23 22:59:00,
2013-01-23 17:04:00,71.6,48.6,29.12,South,183,2.2,3.1,44,0.00,,,0.00,WSDL version 420,2013-01-23 23:04:00,
2013-01-23 17:09:00,71.4,48.9,29.12,South,185,1.9,4.0,45,0.00,,,0.00,WSDL version 420,2013-01-23 23:09:00,
2013-01-23 17:14:00,71.1,48.7,29.12,SSW,198,2.4,4.0,45,0.00,,,0.00,WSDL version 420,2013-01-23 23:14:00,
2013-01-23 17:19:00,70.7,48.3,29.12,SSW,200,1.1,3.1,45,0.00,,,0.00,WSDL version 420,2013-01-23 23:19:00,
2013-01-23 17:24:00,70.4,48.4,29.12,South,169,2.0,2.9,46,0.00,,,0.00,WSDL version 420,2013-01-23 23:24:00,
2013-01-23 17:29:00,70.0,48.3,29.12,South,177,1.3,2.9,46,0.00,,,0.00,WSDL version 420,2013-01-23 23:29:00,
2013-01-23 17:34:00,69.7,48.4,29.12,South,188,1.1,2.9,47,0.00,,,0.00,WSDL version 420,2013-01-23 23:34:00,
2013-01-23 17:39:00,69.4,48.3,29.12,South,180,1.6,2.9,47,0.00,,,0.00,WSDL version 420,2013-01-23 23:39:00,
2013-01-23 17:44:00,69.1,48.1,29.15,SSW,195,1.1,3.6,47,0.00,,,0.00,WSDL version 420,2013-01-23 23:44:00,
2013-01-23 17:49:00,68.7,47.9,29.15,SSW,194,1.5,3.6,48,0.00,,,0.00,WSDL version 420,2013-01-23 23:49:00,
2013-01-23 17:54:00,68.4,48.0,29.15,SSW,197,1.5,2.5,48,0.00,,,0.00,WSDL version 420,2013-01-23 23:54:00,
2013-01-23 17:59:00,68.1,47.8,29.15,SSW,195,1.4,2.5,49,0.00,,,0.00,WSDL version 420,2013-01-23 23:59:00,
2013-01-23 18:04:00,67.6,47.8,29.15,SSW,197,1.3,2.5,49,0.00,,,0.00,WSDL version 420,2013-01-24 00:04:00,
2013-01-23 18:09:00,67.4,47.6,29.15,SW,215,1.1,2.2,49,0.00,,,0.00,WSDL version 420,2013-01-24 00:09:00,
2013-01-23 18:14:00,67.2,47.6,29.15,SSW,206,1.2,2.2,50,0.00,,,0.00,WSDL version 420,2013-01-24 00:14:00,
2013-01-23 18:19:00,66.8,47.4,29.15,SW,220,1.1,2.2,50,0.00,,,0.00,WSDL version 420,2013-01-24 00:19:00,
2013-01-23 18:24:00,66.5,47.3,29.15,South,186,1.2,2.2,50,0.00,,,0.00,WSDL version 420,2013-01-24 00:24:00,
2013-01-23 18:29:00,66.3,47.1,29.15,SSW,198,1.1,2.2,50,0.00,,,0.00,WSDL version 420,2013-01-24 00:29:00,
2013-01-23 18:34:00,66.0,47.3,29.15,SW,215,1.2,2.2,51,0.00,,,0.00,WSDL version 420,2013-01-24 00:34:00,
2013-01-23 18:39:00,65.7,47.1,29.15,South,186,1.1,1.6,51,0.00,,,0.00,WSDL version 420,2013-01-24 00:39:00,
2013-01-23 18:44:00,65.4,46.9,29.15,South,183,1.1,2.0,51,0.00,,,0.00,WSDL version 420,2013-01-24 00:44:00,
2013-01-23 18:49:00,65.1,47.1,29.15,South,180,1.0,2.0,52,0.00,,,0.00,WSDL version 420,2013-01-24 00:49:00,
2013-01-23 18:54:00,64.9,46.8,29.15,SSW,203,1.2,2.0,52,0.00,,,0.00,WSDL version 420,2013-01-24 00:54:00,
2013-01-23 18:59:00,64.6,46.8,29.15,South,180,0.9,2.0,53,0.00,,,0.00,WSDL version 420,2013-01-24 00:59:00,
2013-01-23 19:04:00,64.4,46.8,29.15,SSW,200,1.2,2.0,53,0.00,,,0.00,WSDL version 420,2013-01-24 01:04:00,
2013-01-23 19:09:00,64.2,47.1,29.15,South,175,1.0,2.0,54,0.00,,,0.00,WSDL version 420,2013-01-24 01:09:00,
2013-01-23 19:14:00,64.0,47.0,29.15,South,177,0.6,2.0,54,0.00,,,0.00,WSDL version 420,2013-01-24 01:14:00,
2013-01-23 19:19:00,63.9,47.1,29.15,South,180,1.0,2.0,55,0.00,,,0.00,WSDL version 420,2013-01-24 01:19:00,
2013-01-23 19:24:00,63.7,47.2,29.15,South,172,1.0,1.6,55,0.00,,,0.00,WSDL version 420,2013-01-24 01:24:00,
2013-01-23 19:29:00,63.4,47.0,29.15,SSE,158,0.5,1.6,55,0.00,,,0.00,WSDL version 420,2013-01-24 01:29:00,
2013-01-23 19:34:00,63.2,47.1,29.15,SSE,158,0.0,1.6,56,0.00,,,0.00,WSDL version 420,2013-01-24 01:34:00,
2013-01-23 19:39:00,62.9,47.0,29.15,SSE,158,1.0,1.3,56,0.00,,,0.00,WSDL version 420,2013-01-24 01:39:00,
2013-01-23 19:44:00,62.6,46.7,29.15,SSE,158,0.8,1.3,56,0.00,,,0.00,WSDL version 420,2013-01-24 01:44:00,
2013-01-23 19:49:00,62.3,46.9,29.15,SSE,158,0.8,1.6,57,0.00,,,0.00,WSDL version 420,2013-01-24 01:49:00,
2013-01-23 19:54:00,62.0,46.8,29.15,South,180,0.4,1.6,58,0.00,,,0.00,WSDL version 420,2013-01-24 01:54:00,
2013-01-23 19:59:00,61.9,46.8,29.15,South,177,1.1,1.6,58,0.00,,,0.00,WSDL version 420,2013-01-24 01:59:00,
2013-01-23 20:04:00,61.6,46.4,29.15,South,180,0.4,1.6,57,0.00,,,0.00,WSDL version 420,2013-01-24 02:04:00,
2013-01-23 20:09:00,61.3,46.6,29.15,South,180,1.0,1.6,59,0.00,,,0.00,WSDL version 420,2013-01-24 02:09:00,
2013-01-23 20:14:00,61.2,46.9,29.15,South,180,1.0,2.0,60,0.00,,,0.00,WSDL version 420,2013-01-24 02:14:00,
2013-01-23 20:19:00,61.2,47.1,29.15,SSE,158,0.6,2.0,60,0.00,,,0.00,WSDL version 420,2013-01-24 02:19:00,
2013-01-23 20:24:00,60.9,46.5,29.15,SSE,158,0.0,1.6,59,0.00,,,0.00,WSDL version 420,2013-01-24 02:24:00,
2013-01-23 20:29:00,60.7,46.7,29.15,SSE,158,0.0,0.0,61,0.00,,,0.00,WSDL version 420,2013-01-24 02:29:00,
2013-01-23 20:34:00,60.4,46.9,29.15,SSE,158,0.0,0.0,61,0.00,,,0.00,WSDL version 420,2013-01-24 02:34:00,
2013-01-23 20:44:00,60.1,46.6,29.15,South,180,0.0,0.0,61,0.00,,,0.00,WSDL version 420,2013-01-24 02:44:00,
2013-01-23 20:49:00,60.2,47.1,29.15,South,180,0.0,0.9,63,0.00,,,0.00,WSDL version 420,2013-01-24 02:49:00,
2013-01-23 20:54:00,60.4,47.5,29.15,SW,231,0.0,1.3,61,0.00,,,0.00,WSDL version 420,2013-01-24 02:54:00,
2013-01-23 20:59:00,60.4,47.4,29.15,WSW,248,0.0,1.3,63,0.00,,,0.00,WSDL version 420,2013-01-24 02:59:00,
2013-01-23 21:04:00,60.4,47.7,29.15,WSW,245,0.0,0.0,63,0.00,,,0.00,WSDL version 420,2013-01-24 03:04:00,
2013-01-23 21:09:00,60.2,48.0,29.15,SSW,203,0.4,1.1,64,0.00,,,0.00,WSDL version 420,2013-01-24 03:09:00,
2013-01-23 21:14:00,60.0,47.5,29.15,South,180,0.0,1.1,63,0.00,,,0.00,WSDL version 420,2013-01-24 03:14:00,
2013-01-23 21:19:00,59.9,47.4,29.15,South,180,0.0,1.1,64,0.00,,,0.00,WSDL version 420,2013-01-24 03:19:00,
2013-01-23 21:24:00,59.7,47.5,29.15,South,180,0.0,0.0,64,0.00,,,0.00,WSDL version 420,2013-01-24 03:24:00,
2013-01-23 21:29:00,59.4,47.3,29.15,South,180,0.0,0.0,64,0.00,,,0.00,WSDL version 420,2013-01-24 03:29:00,
2013-01-23 21:34:00,59.0,46.5,29.15,South,180,0.0,0.0,63,0.00,,,0.00,WSDL version 420,2013-01-24 03:34:00,
2013-01-23 21:39:00,58.5,46.6,29.15,South,180,0.0,0.0,65,0.00,,,0.00,WSDL version 420,2013-01-24 03:39:00,
2013-01-23 21:44:00,58.1,46.0,29.18,South,180,0.0,0.0,64,0.00,,,0.00,WSDL version 420,2013-01-24 03:44:00,
2013-01-23 21:49:00,57.7,45.9,29.18,South,180,0.0,0.0,65,0.00,,,0.00,WSDL version 420,2013-01-24 03:49:00,
2013-01-23 21:54:00,57.7,45.9,29.18,SW,225,0.0,0.0,65,0.00,,,0.00,WSDL version 420,2013-01-24 03:54:00,
2013-01-23 21:59:00,58.0,46.4,29.15,SW,225,0.0,0.0,65,0.00,,,0.00,WSDL version 420,2013-01-24 03:59:00,
2013-01-23 22:04:00,58.1,46.7,29.15,SW,225,0.0,0.0,66,0.00,,,0.00,WSDL version 420,2013-01-24 04:04:00,
2013-01-23 22:09:00,58.2,47.1,29.15,SW,225,0.1,1.1,67,0.00,,,0.00,WSDL version 420,2013-01-24 04:09:00,
2013-01-23 22:14:00,58.2,47.3,29.15,SW,225,0.0,1.1,67,0.00,,,0.00,WSDL version 420,2013-01-24 04:14:00,
2013-01-23 22:19:00,58.1,47.3,29.15,SW,225,0.0,0.0,67,0.00,,,0.00,WSDL version 420,2013-01-24 04:19:00,
2013-01-23 22:24:00,58.1,47.4,29.15,SW,225,0.0,0.0,68,0.00,,,0.00,WSDL version 420,2013-01-24 04:24:00,
2013-01-23 22:29:00,58.1,47.6,29.15,SW,225,0.0,0.0,68,0.00,,,0.00,WSDL version 420,2013-01-24 04:29:00,
2013-01-23 22:34:00,58.0,47.5,29.15,SW,225,0.0,0.0,68,0.00,,,0.00,WSDL version 420,2013-01-24 04:34:00,
2013-01-23 22:39:00,57.7,47.2,29.15,SW,225,0.0,0.9,68,0.00,,,0.00,WSDL version 420,2013-01-24 04:39:00,
2013-01-23 22:44:00,57.4,47.4,29.15,SSW,203,0.8,1.3,70,0.00,,,0.00,WSDL version 420,2013-01-24 04:44:00,
2013-01-23 22:49:00,57.4,47.2,29.15,SSW,203,0.0,1.3,69,0.00,,,0.00,WSDL version 420,2013-01-24 04:49:00,
2013-01-23 22:54:00,57.2,47.3,29.15,SSW,203,0.0,0.0,69,0.00,,,0.00,WSDL version 420,2013-01-24 04:54:00,
2013-01-23 22:59:00,57.1,47.4,29.15,SSW,203,0.0,0.0,70,0.00,,,0.00,WSDL version 420,2013-01-24 04:59:00,
2013-01-23 23:04:00,56.9,47.5,29.15,South,174,0.3,1.3,71,0.00,,,0.00,WSDL version 420,2013-01-24 05:04:00,
2013-01-23 23:09:00,57.0,47.7,29.15,WNW,293,0.0,1.3,71,0.00,,,0.00,WSDL version 420,2013-01-24 05:09:00,
2013-01-23 23:14:00,56.9,47.2,29.15,WNW,293,0.0,0.9,70,0.00,,,0.00,WSDL version 420,2013-01-24 05:14:00,
2013-01-23 23:19:00,56.6,47.0,29.15,WNW,293,0.0,0.9,70,0.00,,,0.00,WSDL version 420,2013-01-24 05:19:00,
2013-01-23 23:24:00,56.4,47.1,29.15,WSW,248,0.0,0.0,71,0.00,,,0.00,WSDL version 420,2013-01-24 05:24:00,
2013-01-23 23:29:00,56.3,47.0,29.15,WSW,248,0.0,0.0,71,0.00,,,0.00,WSDL version 420,2013-01-24 05:29:00,
2013-01-23 23:34:00,56.1,46.8,29.15,WSW,248,0.0,0.0,71,0.00,,,0.00,WSDL version 420,2013-01-24 05:34:00,
2013-01-23 23:39:00,55.9,46.9,29.15,WSW,248,0.0,0.0,72,0.00,,,0.00,WSDL version 420,2013-01-24 05:39:00,
2013-01-23 23:44:00,56.2,47.2,29.15,WSW,248,0.0,0.0,71,0.00,,,0.00,WSDL version 420,2013-01-24 05:44:00,
2013-01-23 23:49:00,56.3,47.2,29.15,WSW,248,0.0,0.0,72,0.00,,,0.00,WSDL version 420,2013-01-24 05:49:00,
2013-01-23 23:54:00,56.3,47.4,29.15,WSW,248,0.0,0.0,72,0.00,,,0.00,WSDL version 420,2013-01-24 05:54:00,
2013-01-23 23:59:00,56.3,47.2,29.15,WSW,248,0.0,0.0,71,0.00,,,0.00,WSDL version 420,2013-01-24 05:59:00,